CLT weather

Charlotte Douglas International Airport
Charlotte, North Carolina, United States

Public forecast

Using degrees Fahrenheit for public forecast. Weather courtesy of forecast.io.

METAR (pilot weather report)

Retrieved 2017/09/25 04:52 UTC (26 minutes ago):

KCLT 250452Z 35006KT 10SM BKN250 20/17 A3003 RMK AO2 SLP159 T02000172 403000178

TAF (pilot weather forecast)

Forecast is more than 12 hours old.

Retrieved 2017/09/24 00:30 UTC (1 day ago):

TAF KCLT 242326Z 2500/2524 36004KT P6SM BKN250 FM251500 03010G16KT P6SM SCT250 FM252100 04009KT P6SM FEW050 BKN250